Alsace — PB4786 — position and weather

sailwx.info

Track history (hours):
 
Tides and Currents Weather Stations Pressure Air Temp Water Temp Dewpoint Dewpoint Depression Visibility Wind Speed Wind Dir Waves Ship Positions

Alsace

Last reported at 2014-Dec-21 08:33 UTC. Time now 2014-Dec-21 09:17 UTC.
Position N 51°19' E 004°19'.

Length 178 m.

Type: Ship. MMSI: 244660556.

Date/timePositionNaut miles runAvg speedWind from/ knotsBaromVisibWave heightAir tempDewpointWater temp
2014-Dec-21 08:33N 51°19' E 004°19'0 0.0
2014-Dec-21 07:33N 51°19' E 004°19'0 0.0
2014-Dec-21 06:33N 51°19' E 004°19'0 0.0
2014-Dec-21 05:33N 51°19' E 004°19'0 0.0
2014-Dec-21 04:33N 51°19' E 004°19'0 0.0
2014-Dec-21 03:33N 51°19' E 004°19'0 0.0
2014-Dec-21 02:32N 51°19' E 004°19'0 0.0
2014-Dec-21 01:30N 51°19' E 004°19'0 0.0
2014-Dec-21 00:31N 51°19' E 004°19'0 0.0
2014-Dec-20 23:32N 51°19' E 004°19'0 0.0
2014-Dec-20 22:33N 51°19' E 004°19'0 0.0
2014-Dec-20 21:33N 51°19' E 004°19'0 0.0
2014-Dec-20 20:22N 51°19' E 004°19'0 0.0
2014-Dec-20 19:33N 51°19' E 004°19'0 0.0
2014-Dec-20 17:17N 51°19' E 004°19'0 0.0
2014-Dec-20 16:23N 51°19' E 004°19'0 0.0
2014-Dec-20 15:31N 51°19' E 004°19'0 0.0
2014-Dec-20 14:31N 51°19' E 004°19'0 0.0
2014-Dec-20 13:33N 51°19' E 004°19'0 0.0
2014-Dec-20 12:33N 51°19' E 004°19'0 0.0
2014-Dec-20 11:31N 51°19' E 004°19'0 0.0
2014-Dec-20 10:33N 51°19' E 004°19'0 0.0
2014-Dec-20 09:33N 51°19' E 004°19'0 0.0
2014-Dec-20 08:32N 51°19' E 004°19'0 0.0
2014-Dec-20 07:33N 51°19' E 004°19'0 0.2
2014-Dec-20 06:33N 51°19' E 004°19'0 0.0
2014-Dec-20 05:33N 51°19' E 004°19'2 1.9
2014-Dec-20 04:33N 51°21' E 004°17'0 0.4
2014-Dec-20 03:33N 51°21' E 004°16'0 0.0
2014-Dec-20 02:32N 51°21' E 004°16'0 0.4
2014-Dec-20 01:33N 51°21' E 004°16'1 1.5
2014-Dec-20 00:33N 51°19' E 004°16'1 1.3
2014-Dec-19 23:33N 51°18' E 004°16'0 0.0
2014-Dec-19 22:33N 51°18' E 004°16'0 0.4
2014-Dec-19 21:33N 51°17' E 004°16'0 0.0
2014-Dec-19 20:33N 51°17' E 004°16'3 3.2
2014-Dec-19 19:33N 51°20' E 004°16'1 0.5
2014-Dec-19 18:33N 51°21' E 004°16'5 5.1
2014-Dec-19 17:33N 51°17' E 004°20'0 0.3
2014-Dec-19 16:33N 51°16' E 004°20'0 0.5
2014-Dec-19 15:33N 51°17' E 004°20'1 1.2
2014-Dec-19 14:32N 51°18' E 004°20'0 0.3
2014-Dec-19 13:33N 51°18' E 004°19'7 6.9
2014-Dec-19 12:31N 51°25' E 004°14'4 3.8
2014-Dec-19 11:33N 51°28' E 004°14'7 7.4
2014-Dec-19 10:33N 51°35' E 004°12'7 7.1
2014-Dec-19 09:33N 51°40' E 004°21'3 3.3
2014-Dec-19 08:33N 51°42' E 004°25'7 6.6
2014-Dec-19 07:33N 51°43' E 004°36'3 3.3
2014-Dec-19 06:33N 51°44' E 004°41'7 6.7
2014-Dec-19 05:33N 51°48' E 004°49'7 7.4
2014-Dec-19 04:33N 51°49' E 005°00'8 8.2
2014-Dec-19 03:33N 51°49' E 005°13'8 7.5
2014-Dec-19 02:33N 51°51' E 005°25'9 8.5
2014-Dec-19 01:32N 51°54' E 005°38'54 6.8
2014-Dec-18 17:33N 51°17' E 006°43'7 6.6
2014-Dec-18 16:33N 51°11' E 006°45'127 7.0
2014-Dec-17 22:24N 49°23' E 008°30'6 7.0
2014-Dec-17 21:32N 49°17' E 008°28'9 8.8
2014-Dec-17 20:33N 49°09' E 008°22'9 9.4
2014-Dec-17 19:33N 49°00' E 008°18'11 9.2
2014-Dec-17 18:19N 48°51' E 008°07'2 1.8
2014-Dec-17 17:28N 48°50' E 008°07'5 5.5
2014-Dec-17 16:32N 48°46' E 008°01'7 5.3
2014-Dec-17 15:15N 48°41' E 007°55'23511.8
2014-Dec-16 19:16N 51°54' E 004°24'282163.7
2014-Dec-16 17:33N 47°39' E 007°32'4 3.8
2014-Dec-16 16:33N 47°36' E 007°35'0 0.2
2014-Dec-16 15:33N 47°36' E 007°36'1 1.0
2014-Dec-16 14:25N 47°35' E 007°35'0 0.0
2014-Dec-16 13:27N 47°35' E 007°35'0 0.3
2014-Dec-16 12:33N 47°35' E 007°35'0 0.0
2014-Dec-16 11:33N 47°35' E 007°35'0 0.2
2014-Dec-16 10:31N 47°35' E 007°35'0 0.0
2014-Dec-16 09:33N 47°35' E 007°35'0 0.0
2014-Dec-16 08:33N 47°35' E 007°35'0 0.0
2014-Dec-16 07:31N 47°35' E 007°35'0 0.0
2014-Dec-16 06:33N 47°35' E 007°35'0 0.0
2014-Dec-16 05:27N 47°35' E 007°35'0 0.1
2014-Dec-16 04:33N 47°35' E 007°35'0 0.0
2014-Dec-16 03:31N 47°35' E 007°35'0 0.0
2014-Dec-16 02:14N 47°35' E 007°35'0 0.0
2014-Dec-16 01:30N 47°35' E 007°35'0 0.0
2014-Dec-16 00:33N 47°35' E 007°35'0 0.0
2014-Dec-15 22:09N 47°35' E 007°35'0 0.0
2014-Dec-15 21:06N 47°35' E 007°35'0 0.0
2014-Dec-15 20:32N 47°35' E 007°35'0 0.0
2014-Dec-15 19:27N 47°35' E 007°35'0 0.1
2014-Dec-15 18:33N 47°35' E 007°35'0 0.0
2014-Dec-15 17:22N 47°35' E 007°35'0 0.0
2014-Dec-15 16:23N 47°35' E 007°35'0 0.0
2014-Dec-15 15:31N 47°35' E 007°35'0 0.1
2014-Dec-15 14:33N 47°35' E 007°35'0 0.1
2014-Dec-15 12:33N 47°35' E 007°36'1 1.3
2014-Dec-15 11:33N 47°37' E 007°35'  
2014-Dec-13 07:33N 48°41' E 007°55'1 0.9
2014-Dec-13 06:33N 48°42' E 007°55'7 6.0
2014-Dec-13 05:27N 48°47' E 008°02'5 3.5
2014-Dec-13 04:08N 48°50' E 008°07'1 2.3
2014-Dec-13 03:33N 48°51' E 008°07'4 4.0
2014-Dec-13 02:33N 48°55' E 008°10'4 3.8
2014-Dec-13 01:33N 48°58' E 008°13'4 3.7
2014-Dec-13 00:33N 49°00' E 008°18'4 4.0
2014-Dec-12 23:33N 49°04' E 008°19'4 4.2
2014-Dec-12 22:33N 49°08' E 008°22'4 4.1
2014-Dec-12 21:33N 49°12' E 008°23'4 4.2
2014-Dec-12 20:33N 49°16' E 008°26'3 3.2
2014-Dec-12 19:33N 49°19' E 008°28'5 4.6
2014-Dec-12 18:32N 49°23' E 008°30'22 4.2
2014-Dec-12 13:16N 49°46' E 008°29'88 4.2
2014-Dec-11 16:19N 50°54' E 007°01'17 4.4
2014-Dec-11 12:31N 51°09' E 006°51'3 2.7
2014-Dec-11 11:33N 51°11' E 006°48'4 4.1
2014-Dec-11 10:33N 51°14' E 006°44'2 2.1
2014-Dec-11 09:33N 51°16' E 006°43'  
Track history (hours):
 
Tides and Currents Weather Stations Pressure Air Temp Water Temp Dewpoint Dewpoint Depression Visibility Wind Speed Wind Dir Waves Ship Positions

Alsace

Last reported at 2014-Dec-21 08:33 UTC. Time now 2014-Dec-21 09:17 UTC.
Position N 51°19' E 004°19'.

Length 178 m.

Type: Ship. MMSI: 244660556.

Date/timePositionNaut miles runAvg speedWind from/ knotsBaromVisibWave heightAir tempDewpointWater temp
2014-Dec-21 08:33N 51°19' E 004°19'0 0.0
2014-Dec-21 07:33N 51°19' E 004°19'0 0.0
2014-Dec-21 06:33N 51°19' E 004°19'0 0.0
2014-Dec-21 05:33N 51°19' E 004°19'0 0.0
2014-Dec-21 04:33N 51°19' E 004°19'0 0.0
2014-Dec-21 03:33N 51°19' E 004°19'0 0.0
2014-Dec-21 02:32N 51°19' E 004°19'0 0.0
2014-Dec-21 01:30N 51°19' E 004°19'0 0.0
2014-Dec-21 00:31N 51°19' E 004°19'0 0.0
2014-Dec-20 23:32N 51°19' E 004°19'0 0.0
2014-Dec-20 22:33N 51°19' E 004°19'0 0.0
2014-Dec-20 21:33N 51°19' E 004°19'0 0.0
2014-Dec-20 20:22N 51°19' E 004°19'0 0.0
2014-Dec-20 19:33N 51°19' E 004°19'0 0.0
2014-Dec-20 17:17N 51°19' E 004°19'0 0.0
2014-Dec-20 16:23N 51°19' E 004°19'0 0.0
2014-Dec-20 15:31N 51°19' E 004°19'0 0.0
2014-Dec-20 14:31N 51°19' E 004°19'0 0.0
2014-Dec-20 13:33N 51°19' E 004°19'0 0.0
2014-Dec-20 12:33N 51°19' E 004°19'0 0.0
2014-Dec-20 11:31N 51°19' E 004°19'0 0.0
2014-Dec-20 10:33N 51°19' E 004°19'0 0.0
2014-Dec-20 09:33N 51°19' E 004°19'0 0.0
2014-Dec-20 08:32N 51°19' E 004°19'0 0.0
2014-Dec-20 07:33N 51°19' E 004°19'0 0.2
2014-Dec-20 06:33N 51°19' E 004°19'0 0.0
2014-Dec-20 05:33N 51°19' E 004°19'2 1.9
2014-Dec-20 04:33N 51°21' E 004°17'0 0.4
2014-Dec-20 03:33N 51°21' E 004°16'0 0.0
2014-Dec-20 02:32N 51°21' E 004°16'0 0.4
2014-Dec-20 01:33N 51°21' E 004°16'1 1.5
2014-Dec-20 00:33N 51°19' E 004°16'1 1.3
2014-Dec-19 23:33N 51°18' E 004°16'0 0.0
2014-Dec-19 22:33N 51°18' E 004°16'0 0.4
2014-Dec-19 21:33N 51°17' E 004°16'0 0.0
2014-Dec-19 20:33N 51°17' E 004°16'3 3.2
2014-Dec-19 19:33N 51°20' E 004°16'1 0.5
2014-Dec-19 18:33N 51°21' E 004°16'5 5.1
2014-Dec-19 17:33N 51°17' E 004°20'0 0.3
2014-Dec-19 16:33N 51°16' E 004°20'0 0.5
2014-Dec-19 15:33N 51°17' E 004°20'1 1.2
2014-Dec-19 14:32N 51°18' E 004°20'0 0.3
2014-Dec-19 13:33N 51°18' E 004°19'7 6.9
2014-Dec-19 12:31N 51°25' E 004°14'4 3.8
2014-Dec-19 11:33N 51°28' E 004°14'7 7.4
2014-Dec-19 10:33N 51°35' E 004°12'7 7.1
2014-Dec-19 09:33N 51°40' E 004°21'3 3.3
2014-Dec-19 08:33N 51°42' E 004°25'7 6.6
2014-Dec-19 07:33N 51°43' E 004°36'3 3.3
2014-Dec-19 06:33N 51°44' E 004°41'7 6.7
2014-Dec-19 05:33N 51°48' E 004°49'7 7.4
2014-Dec-19 04:33N 51°49' E 005°00'8 8.2
2014-Dec-19 03:33N 51°49' E 005°13'8 7.5
2014-Dec-19 02:33N 51°51' E 005°25'9 8.5
2014-Dec-19 01:32N 51°54' E 005°38'54 6.8
2014-Dec-18 17:33N 51°17' E 006°43'7 6.6
2014-Dec-18 16:33N 51°11' E 006°45'127 7.0
2014-Dec-17 22:24N 49°23' E 008°30'6 7.0
2014-Dec-17 21:32N 49°17' E 008°28'9 8.8
2014-Dec-17 20:33N 49°09' E 008°22'9 9.4
2014-Dec-17 19:33N 49°00' E 008°18'11 9.2
2014-Dec-17 18:19N 48°51' E 008°07'2 1.8
2014-Dec-17 17:28N 48°50' E 008°07'5 5.5
2014-Dec-17 16:32N 48°46' E 008°01'7 5.3
2014-Dec-17 15:15N 48°41' E 007°55'23511.8
2014-Dec-16 19:16N 51°54' E 004°24'282163.7
2014-Dec-16 17:33N 47°39' E 007°32'4 3.8
2014-Dec-16 16:33N 47°36' E 007°35'0 0.2
2014-Dec-16 15:33N 47°36' E 007°36'1 1.0
2014-Dec-16 14:25N 47°35' E 007°35'0 0.0
2014-Dec-16 13:27N 47°35' E 007°35'0 0.3
2014-Dec-16 12:33N 47°35' E 007°35'0 0.0
2014-Dec-16 11:33N 47°35' E 007°35'0 0.2
2014-Dec-16 10:31N 47°35' E 007°35'0 0.0
2014-Dec-16 09:33N 47°35' E 007°35'0 0.0
2014-Dec-16 08:33N 47°35' E 007°35'0 0.0
2014-Dec-16 07:31N 47°35' E 007°35'0 0.0
2014-Dec-16 06:33N 47°35' E 007°35'0 0.0
2014-Dec-16 05:27N 47°35' E 007°35'0 0.1
2014-Dec-16 04:33N 47°35' E 007°35'0 0.0
2014-Dec-16 03:31N 47°35' E 007°35'0 0.0
2014-Dec-16 02:14N 47°35' E 007°35'0 0.0
2014-Dec-16 01:30N 47°35' E 007°35'0 0.0
2014-Dec-16 00:33N 47°35' E 007°35'0 0.0
2014-Dec-15 22:09N 47°35' E 007°35'0 0.0
2014-Dec-15 21:06N 47°35' E 007°35'0 0.0
2014-Dec-15 20:32N 47°35' E 007°35'0 0.0
2014-Dec-15 19:27N 47°35' E 007°35'0 0.1
2014-Dec-15 18:33N 47°35' E 007°35'0 0.0
2014-Dec-15 17:22N 47°35' E 007°35'0 0.0
2014-Dec-15 16:23N 47°35' E 007°35'0 0.0
2014-Dec-15 15:31N 47°35' E 007°35'0 0.1
2014-Dec-15 14:33N 47°35' E 007°35'0 0.1
2014-Dec-15 12:33N 47°35' E 007°36'1 1.3
2014-Dec-15 11:33N 47°37' E 007°35'  
2014-Dec-13 07:33N 48°41' E 007°55'1 0.9
2014-Dec-13 06:33N 48°42' E 007°55'7 6.0
2014-Dec-13 05:27N 48°47' E 008°02'5 3.5
2014-Dec-13 04:08N 48°50' E 008°07'1 2.3
2014-Dec-13 03:33N 48°51' E 008°07'4 4.0
2014-Dec-13 02:33N 48°55' E 008°10'4 3.8
2014-Dec-13 01:33N 48°58' E 008°13'4 3.7
2014-Dec-13 00:33N 49°00' E 008°18'4 4.0
2014-Dec-12 23:33N 49°04' E 008°19'4 4.2
2014-Dec-12 22:33N 49°08' E 008°22'4 4.1
2014-Dec-12 21:33N 49°12' E 008°23'4 4.2
2014-Dec-12 20:33N 49°16' E 008°26'3 3.2
2014-Dec-12 19:33N 49°19' E 008°28'5 4.6
2014-Dec-12 18:32N 49°23' E 008°30'22 4.2
2014-Dec-12 13:16N 49°46' E 008°29'88 4.2
2014-Dec-11 16:19N 50°54' E 007°01'17 4.4
2014-Dec-11 12:31N 51°09' E 006°51'3 2.7
2014-Dec-11 11:33N 51°11' E 006°48'4 4.1
2014-Dec-11 10:33N 51°14' E 006°44'2 2.1
2014-Dec-11 09:33N 51°16' E 006°43'  

Dump ship's entire track history